This is the latest recevied weather packets stored in our database for station/object KE5VT. If no packets are shown the sender has not sent any weather packets the latest 10 day(s).
| Time | Temp. | Humidity | Pressure | Rain* | Wind** | Luminosity | Snow |
|---|---|---|---|---|---|---|---|
| 1787402401 | 22.22° C | 99% | 1012.8 hPa | 0 mm | - | 55 W/m² | - |
| 1787402097 | 21.67° C | 99% | 1012.8 hPa | 0 mm | - | 58 W/m² | - |
| 1787401791 | 21.67° C | 99% | 1013 hPa | 0 mm | - | 34 W/m² | - |
| 1787401488 | 21.67° C | 99% | 1012.9 hPa | 0 mm | - | 27 W/m² | - |
| 1787401183 | 21.67° C | 99% | 1012.9 hPa | 0 mm | - | 25 W/m² | - |
| 1787400879 | 21.67° C | 99% | 1012.9 hPa | 0 mm | - | 26 W/m² | - |
| 1787400578 | 21.67° C | 99% | 1012.9 hPa | 0 mm | - | 30 W/m² | - |
| 1787400274 | 21.67° C | 99% | 1012.8 hPa | 0 mm | - | 35 W/m² | - |
| 1787399971 | 21.67° C | 99% | 1012.6 hPa | 0 mm | - | 40 W/m² | - |
| 1787399667 | 21.67° C | 99% | 1012.8 hPa | 0 mm | - | 31 W/m² | - |
| 1787399366 | 21.67° C | 99% | 1012.7 hPa | 0 mm | - | 21 W/m² | - |
| 1787399066 | 21.67° C | 99% | 1012.7 hPa | 0 mm | - | 22 W/m² | - |
| 1787398761 | 21.67° C | 99% | 1012.7 hPa | 0 mm | - | 15 W/m² | - |
| 1787398458 | 21.67° C | 99% | 1012.8 hPa | 0 mm | - | 14 W/m² | - |
| 1787398154 | 21.67° C | 99% | 1012.7 hPa | 0 mm | - | 13 W/m² | - |
| 1787397854 | 21.67° C | 99% | 1012.8 hPa | 0 mm | - | 7 W/m² | - |
| 1787397549 | 21.67° C | 99% | 1012.7 hPa | 0 mm | - | 5 W/m² | - |
| 1787397244 | 21.67° C | 99% | 1012.6 hPa | 0 mm | - | 4 W/m² | - |
| 1787396943 | 21.67° C | 99% | 1012.6 hPa | 0 mm | - | 3 W/m² | - |
| 1787396640 | 21.67° C | 99% | 1012.4 hPa | 0 mm | - | 2 W/m² | - |
| 1787396335 | 21.67° C | 99% | 1012.4 hPa | 0 mm | - | 1 W/m² | - |
| 1787396035 | 21.67° C | 99% | 1012.2 hPa | 0 mm | - | 1 W/m² | - |
| 1787395730 | 21.67° C | 99% | 1012.2 hPa | 0 mm | - | 0 W/m² | - |
| 1787395425 | 21.67° C | 99% | 1012 hPa | 0 mm | - | 0 W/m² | - |
| 1787395124 | 21.67° C | 99% | 1011.9 hPa | 0 mm | - | 0 W/m² | - |
* Rain latest hour (hover to see other rain measurements)
** Current wind speed in m/s (hover to see current wind gust speed)